Terminal Aerodrome Forecast
Issued by NWS

Home | Current Version | Previous Version | Text Only | Print | Product List | Glossary On
Versions: 1 2 3 4 5 6 7 8 9 10 11 12 13 14 15 16 17 18
000
FTUS44 KTSA 291100 RRA
TAFRVS
TAF
KRVS 291142Z 2912/3012 04003KT P6SM BKN150
     FM292100 06007KT P6SM OVC100
     FM300900 02008KT P6SM OVC050=

USA.gov is the U.S. government's official web portal to all federal, state and local government web resources and services.